createdAt,value
2023-04-05T00:02:22.364Z,5.40
2023-04-05T00:04:54.890Z,7.10
2023-04-05T00:07:26.488Z,5.68
2023-04-05T00:09:55.833Z,6.60
2023-04-05T00:12:27.574Z,5.30
2023-04-05T00:15:01.107Z,5.45
2023-04-05T00:17:31.610Z,6.55
2023-04-05T00:20:01.978Z,6.10
2023-04-05T00:22:34.137Z,6.65
2023-04-05T00:25:05.690Z,5.05
2023-04-05T00:27:34.878Z,7.32
2023-04-05T00:30:10.036Z,4.43
2023-04-05T00:32:39.770Z,4.80
2023-04-05T00:35:10.472Z,5.28
2023-04-05T00:37:39.718Z,6.15
2023-04-05T00:40:10.605Z,5.18
2023-04-05T00:42:39.752Z,4.80
2023-04-05T00:45:11.370Z,3.38
2023-04-05T00:47:43.102Z,4.80
2023-04-05T00:50:16.822Z,5.60
2023-04-05T00:55:15.961Z,6.82
2023-04-05T00:57:50.117Z,5.20
2023-04-05T01:00:23.044Z,4.18
2023-04-05T01:03:01.870Z,3.25
2023-04-05T01:05:39.679Z,4.13
2023-04-05T01:08:19.792Z,4.25
2023-04-05T01:10:56.536Z,4.75
2023-04-05T01:13:27.422Z,3.20
2023-04-05T01:16:00.837Z,7.15
2023-04-05T01:21:34.080Z,4.82
2023-04-05T01:24:15.397Z,4.22
2023-04-05T01:27:03.061Z,7.03
2023-04-05T01:29:54.971Z,5.20
2023-04-05T01:32:47.934Z,3.85
2023-04-05T01:35:23.494Z,4.40
2023-04-05T01:38:01.148Z,4.80
2023-04-05T01:40:32.012Z,5.13
2023-04-05T01:43:03.241Z,4.00
2023-04-05T01:45:33.518Z,4.07
2023-04-05T01:48:02.809Z,3.75
2023-04-05T01:50:31.807Z,5.68
2023-04-05T01:53:00.857Z,5.55
2023-04-05T01:55:29.950Z,4.43
2023-04-05T01:57:59.233Z,4.65
2023-04-05T02:00:29.269Z,4.85
2023-04-05T02:03:02.188Z,5.80
2023-04-05T02:05:32.222Z,3.95
2023-04-05T02:08:01.282Z,5.53
2023-04-05T02:10:30.369Z,5.00
2023-04-05T02:13:02.940Z,4.82
2023-04-05T02:15:35.554Z,3.60
2023-04-05T02:18:08.126Z,3.63
2023-04-05T02:20:37.749Z,4.15
2023-04-05T02:23:07.724Z,5.00
2023-04-05T02:25:37.387Z,3.50
2023-04-05T02:28:11.836Z,4.07
2023-04-05T02:30:41.683Z,2.85
2023-04-05T02:33:14.432Z,3.25
2023-04-05T02:35:43.621Z,3.22
2023-04-05T02:38:13.079Z,3.53
2023-04-05T02:40:47.283Z,2.83
2023-04-05T02:43:16.555Z,3.20
2023-04-05T02:45:47.109Z,2.88
2023-04-05T02:48:21.587Z,2.67
2023-04-05T02:50:51.700Z,3.15
2023-04-05T02:53:22.509Z,2.17
2023-04-05T02:56:00.221Z,3.33
2023-04-05T02:58:30.600Z,2.38
2023-04-05T03:01:01.811Z,2.85
2023-04-05T03:03:35.716Z,3.70
2023-04-05T03:06:10.478Z,2.72
2023-04-05T03:08:49.922Z,3.58
2023-04-05T03:11:24.105Z,5.65
2023-04-05T03:16:46.834Z,5.45
2023-04-05T03:19:27.410Z,3.55
2023-04-05T03:22:03.138Z,2.95
2023-04-05T03:24:35.969Z,3.17
2023-04-05T03:28:24.973Z,2.70
2023-04-05T03:30:33.549Z,2.35
2023-04-05T03:33:13.933Z,2.20
2023-04-05T03:35:51.049Z,3.53
2023-04-05T03:38:23.158Z,3.10
2023-04-05T03:41:06.997Z,2.47
2023-04-05T03:43:39.420Z,2.53
2023-04-05T03:46:10.703Z,3.63
2023-04-05T03:48:40.612Z,2.97
2023-04-05T03:51:11.127Z,3.60
2023-04-05T03:53:40.943Z,2.25
2023-04-05T03:56:15.821Z,2.53
2023-04-05T03:58:48.659Z,1.88
2023-04-05T04:01:19.912Z,2.53
2023-04-05T04:03:48.997Z,2.28
2023-04-05T04:06:19.805Z,2.65
2023-04-05T04:08:49.233Z,3.38
2023-04-05T04:11:18.336Z,2.13
2023-04-05T04:13:47.634Z,1.58
2023-04-05T04:16:35.514Z,2.10
2023-04-05T04:19:24.248Z,1.85
2023-04-05T04:22:40.810Z,3.45
2023-04-05T04:25:31.584Z,3.88
2023-04-05T04:28:08.114Z,3.92
2023-04-05T04:30:58.222Z,3.75
2023-04-05T04:33:38.497Z,2.20
2023-04-05T04:36:37.163Z,2.97
2023-04-05T04:39:45.081Z,3.40
2023-04-05T04:42:39.176Z,2.45
2023-04-05T04:45:20.811Z,2.55
2023-04-05T04:48:10.635Z,1.85
2023-04-05T04:51:00.314Z,1.90
2023-04-05T04:53:36.335Z,2.72
2023-04-05T04:56:09.949Z,1.95
2023-04-05T04:58:41.481Z,1.67
2023-04-05T05:01:12.072Z,1.67
2023-04-05T05:03:41.471Z,1.50
2023-04-05T05:06:13.217Z,1.30
2023-04-05T05:08:42.263Z,1.65
2023-04-05T05:11:12.696Z,5.25
2023-04-05T05:13:45.228Z,1.88
2023-04-05T05:16:22.727Z,2.03
2023-04-05T05:18:52.722Z,4.00
2023-04-05T05:24:10.190Z,0.95
2023-04-05T05:26:42.943Z,1.35
2023-04-05T05:29:12.222Z,3.95
2023-04-05T05:31:45.256Z,1.40
2023-04-05T05:34:16.087Z,1.63
2023-04-05T05:36:52.550Z,1.73
2023-04-05T05:39:22.042Z,1.52
2023-04-05T05:41:53.710Z,2.35
2023-04-05T05:44:22.925Z,1.58
2023-04-05T05:46:52.046Z,2.95
2023-04-05T05:49:21.981Z,2.13
2023-04-05T05:51:52.769Z,1.85
2023-04-05T05:54:22.359Z,1.48
2023-04-05T05:56:52.853Z,3.28
2023-04-05T05:59:22.074Z,3.42
2023-04-05T06:01:52.321Z,3.22
2023-04-05T06:04:22.130Z,2.50
2023-04-05T06:06:51.713Z,3.92
2023-04-05T06:09:23.978Z,2.20
2023-04-05T06:11:57.216Z,1.70
2023-04-05T06:14:36.473Z,2.05
2023-04-05T06:17:06.637Z,1.17
2023-04-05T06:19:36.095Z,1.67
2023-04-05T06:22:05.443Z,0.75
2023-04-05T06:24:38.872Z,2.05
2023-04-05T06:27:11.306Z,2.30
2023-04-05T06:29:46.295Z,2.00
2023-04-05T06:32:15.866Z,1.98
2023-04-05T06:34:49.114Z,2.72
2023-04-05T06:37:19.290Z,0.77
2023-04-05T06:39:50.880Z,1.55
2023-04-05T06:42:22.547Z,1.02
2023-04-05T06:44:59.211Z,2.58
2023-04-05T06:47:28.676Z,0.77
2023-04-05T06:50:06.224Z,6.85
2023-04-05T06:52:36.227Z,2.05
2023-04-05T06:55:07.986Z,1.65
2023-04-05T06:57:40.185Z,1.80
2023-04-05T07:00:12.802Z,2.60
2023-04-05T07:02:42.143Z,1.35
2023-04-05T07:05:11.685Z,0.98
2023-04-05T07:07:48.802Z,2.80
2023-04-05T07:10:18.787Z,4.03
2023-04-05T07:12:51.757Z,1.95
2023-04-05T07:15:23.345Z,1.27
2023-04-05T07:17:58.638Z,2.28
2023-04-05T07:20:27.774Z,1.50
2023-04-05T07:22:58.779Z,1.00
2023-04-05T07:25:30.492Z,3.40
2023-04-05T07:28:04.337Z,1.70
2023-04-05T07:30:38.019Z,2.90
2023-04-05T07:33:09.036Z,3.00
2023-04-05T07:35:38.197Z,1.60
2023-04-05T07:38:08.785Z,2.38
2023-04-05T07:40:38.750Z,5.05
2023-04-05T07:43:12.110Z,3.10
2023-04-05T07:45:41.506Z,2.83
2023-04-05T07:48:11.416Z,2.83
2023-04-05T07:50:41.399Z,2.45
2023-04-05T07:53:10.896Z,2.05
2023-04-05T07:55:42.276Z,2.38
2023-04-05T07:58:16.425Z,4.00
2023-04-05T08:00:45.665Z,2.95
2023-04-05T08:03:16.240Z,1.05
2023-04-05T08:05:46.260Z,2.03
2023-04-05T08:08:15.613Z,1.73
2023-04-05T08:10:45.133Z,1.58
2023-04-05T08:13:18.635Z,1.52
2023-04-05T08:15:49.080Z,1.83
2023-04-05T08:18:19.318Z,3.22
2023-04-05T08:20:54.764Z,3.50
2023-04-05T08:23:27.700Z,3.70
2023-04-05T08:25:57.130Z,1.42
2023-04-05T08:28:28.132Z,1.30
2023-04-05T08:30:57.817Z,1.90
2023-04-05T08:33:31.236Z,2.05
2023-04-05T08:36:05.828Z,4.78
2023-04-05T08:38:35.478Z,1.98
2023-04-05T08:41:16.469Z,2.08
2023-04-05T08:43:56.436Z,2.03
2023-04-05T08:46:26.226Z,3.13
2023-04-05T08:48:56.417Z,1.73
2023-04-05T08:51:27.829Z,2.25
2023-04-05T08:53:57.981Z,2.03
2023-04-05T08:56:32.555Z,1.63
2023-04-05T08:59:05.966Z,2.10
2023-04-05T09:01:43.595Z,2.60
2023-04-05T09:04:18.142Z,2.55
2023-04-05T09:06:48.672Z,2.05
2023-04-05T09:09:22.539Z,2.05
2023-04-05T09:14:23.237Z,3.15
2023-04-05T09:16:53.298Z,2.75
2023-04-05T09:19:22.341Z,1.98
2023-04-05T09:22:01.852Z,1.70
2023-04-05T09:24:37.025Z,1.45
2023-04-05T09:27:08.573Z,3.60
2023-04-05T09:29:40.631Z,1.60
2023-04-05T09:32:13.885Z,2.45
2023-04-05T09:34:44.563Z,2.83
2023-04-05T09:37:22.698Z,4.93
2023-04-05T09:40:04.015Z,2.85
2023-04-05T09:42:44.919Z,1.48
2023-04-05T09:45:16.572Z,2.10
2023-04-05T09:47:58.219Z,2.20
2023-04-05T09:50:29.283Z,3.15
2023-04-05T09:53:09.724Z,2.53
2023-04-05T09:55:40.269Z,2.42
2023-04-05T09:58:13.985Z,3.17
2023-04-05T10:00:59.925Z,2.35
2023-04-05T10:03:32.437Z,2.05
2023-04-05T10:06:02.049Z,2.25
2023-04-05T10:08:34.528Z,2.78
2023-04-05T10:11:10.556Z,2.90
2023-04-05T10:13:41.331Z,3.10
2023-04-05T10:16:20.664Z,1.90
2023-04-05T10:19:09.145Z,1.83
2023-04-05T10:21:45.106Z,1.95
2023-04-05T10:24:27.627Z,2.72
2023-04-05T10:27:06.217Z,4.20
2023-04-05T10:29:45.502Z,3.42
2023-04-05T10:32:26.205Z,2.78
2023-04-05T10:35:02.485Z,3.45
2023-04-05T10:37:56.124Z,4.32
2023-04-05T10:40:31.136Z,2.97
2023-04-05T10:43:01.380Z,1.55
2023-04-05T10:45:35.649Z,3.20
2023-04-05T10:48:17.321Z,2.38
2023-04-05T10:50:50.116Z,3.40
2023-04-05T10:53:38.872Z,3.10
2023-04-05T10:56:09.495Z,2.35
2023-04-05T10:58:45.441Z,7.30
2023-04-05T11:01:18.969Z,3.50
2023-04-05T11:03:54.002Z,3.25
2023-04-05T11:06:35.992Z,4.85
2023-04-05T11:09:13.536Z,3.33
2023-04-05T11:11:44.276Z,2.72
2023-04-05T11:14:25.868Z,3.50
2023-04-05T11:16:56.974Z,2.70
2023-04-05T11:19:53.511Z,2.97
2023-04-05T11:22:36.563Z,4.35
2023-04-05T11:25:07.043Z,3.90
2023-04-05T11:27:42.022Z,3.53
2023-04-05T11:30:13.987Z,3.80
2023-04-05T11:32:45.036Z,4.03
2023-04-05T11:35:17.793Z,4.18
2023-04-05T11:37:58.931Z,3.57
2023-04-05T11:40:29.951Z,3.78
2023-04-05T11:43:06.006Z,3.72
2023-04-05T11:45:36.276Z,4.22
2023-04-05T11:48:10.840Z,3.95
2023-04-05T11:50:43.028Z,5.28
2023-04-05T11:53:13.594Z,4.55
2023-04-05T11:55:44.360Z,4.70
2023-04-05T11:58:16.228Z,3.38
2023-04-05T12:00:47.222Z,3.67
2023-04-05T12:03:17.308Z,3.90
2023-04-05T12:05:49.884Z,4.63
2023-04-05T12:08:21.647Z,4.07
2023-04-05T12:10:57.706Z,3.80
2023-04-05T12:13:28.823Z,4.13
2023-04-05T12:16:00.719Z,6.35
2023-04-05T12:18:32.226Z,4.32
2023-04-05T12:21:06.421Z,3.55
2023-04-05T12:23:37.466Z,4.68
2023-04-05T12:26:09.816Z,4.03
2023-04-05T12:28:51.874Z,5.20
2023-04-05T12:31:39.851Z,5.28
2023-04-05T12:34:10.165Z,5.00
2023-04-05T12:36:45.787Z,4.88
2023-04-05T12:39:18.550Z,6.05
2023-04-05T12:41:58.514Z,5.77
2023-04-05T12:44:31.728Z,5.03
2023-04-05T12:47:05.376Z,4.75
2023-04-05T12:52:09.675Z,6.32
2023-04-05T12:54:40.611Z,4.20
2023-04-05T12:57:13.094Z,4.60
2023-04-05T12:59:42.448Z,6.13
2023-04-05T13:02:11.691Z,5.85
2023-04-05T13:04:41.551Z,4.45
2023-04-05T13:07:13.846Z,5.50
2023-04-05T13:09:43.573Z,5.47
2023-04-05T13:12:13.085Z,5.47
2023-04-05T13:14:42.654Z,5.03
2023-04-05T13:17:12.168Z,6.15
2023-04-05T13:19:41.347Z,5.30
2023-04-05T13:22:12.121Z,5.10
2023-04-05T13:24:41.272Z,6.57
2023-04-05T13:27:10.461Z,7.95
2023-04-05T13:29:39.901Z,5.32
2023-04-05T13:32:09.114Z,5.63
2023-04-05T13:34:38.282Z,6.57
2023-04-05T13:37:07.931Z,5.80
2023-04-05T13:39:38.416Z,5.68
2023-04-05T13:42:07.647Z,5.53
2023-04-05T13:44:38.411Z,6.03
2023-04-05T13:47:07.746Z,5.30
2023-04-05T13:49:37.183Z,7.45
2023-04-05T13:52:06.892Z,5.15
2023-04-05T13:54:36.096Z,5.20
2023-04-05T13:57:06.823Z,4.60
2023-04-05T13:59:35.988Z,6.95
2023-04-05T14:02:05.521Z,5.20
2023-04-05T14:04:34.786Z,8.05
2023-04-05T14:07:04.000Z,5.97
2023-04-05T14:09:33.376Z,8.65
2023-04-05T14:12:04.580Z,8.90
2023-04-05T14:14:35.530Z,6.90
2023-04-05T14:17:09.120Z,7.20
2023-04-05T14:22:08.235Z,7.80
2023-04-05T14:24:37.300Z,4.85
2023-04-05T14:27:06.487Z,7.35
2023-04-05T14:29:37.247Z,8.15
2023-04-05T14:32:07.083Z,6.70
2023-04-05T14:34:36.602Z,6.53
2023-04-05T14:37:06.761Z,8.55
2023-04-05T14:39:36.042Z,6.80
2023-04-05T14:42:05.714Z,7.97
2023-04-05T14:44:36.403Z,9.93
2023-04-05T14:47:05.979Z,9.57
2023-04-05T14:49:34.993Z,7.43
2023-04-05T14:52:05.403Z,9.93
2023-04-05T14:54:36.224Z,7.05
2023-04-05T14:57:12.179Z,10.55
2023-04-05T14:59:45.188Z,10.52
2023-04-05T15:02:14.780Z,9.68
2023-04-05T15:04:43.958Z,11.60
2023-04-05T15:07:13.252Z,9.85
2023-04-05T15:09:52.405Z,15.35
2023-04-05T15:12:22.616Z,11.23
2023-04-05T15:14:55.866Z,10.73
2023-04-05T15:17:28.801Z,8.32
2023-04-05T15:19:58.028Z,8.43
2023-04-05T15:22:30.016Z,11.20
2023-04-05T15:25:02.560Z,10.95
2023-04-05T15:27:51.229Z,11.80
2023-04-05T15:30:22.570Z,8.80
2023-04-05T15:32:56.845Z,10.77
2023-04-05T15:35:28.369Z,9.50
2023-04-05T15:37:58.871Z,9.85
2023-04-05T15:40:31.531Z,11.00
2023-04-05T15:43:01.456Z,8.98
2023-04-05T15:45:32.782Z,9.75
2023-04-05T15:48:04.978Z,16.50
2023-04-05T15:50:38.244Z,10.90
2023-04-05T15:53:11.355Z,12.10
2023-04-05T15:55:41.261Z,12.75
2023-04-05T15:58:11.172Z,13.68
2023-04-05T16:00:42.847Z,11.55
2023-04-05T16:03:12.559Z,10.88
2023-04-05T16:05:42.630Z,11.68
2023-04-05T16:08:15.199Z,12.10
2023-04-05T16:10:45.068Z,11.35
2023-04-05T16:13:17.681Z,13.55
2023-04-05T16:15:49.082Z,11.27
2023-04-05T16:18:21.319Z,12.55
2023-04-05T16:20:51.689Z,12.05
2023-04-05T16:23:22.448Z,10.55
2023-04-05T16:25:52.305Z,11.95
2023-04-05T16:28:21.748Z,14.27
2023-04-05T16:30:54.370Z,12.77
2023-04-05T16:33:23.824Z,13.55
2023-04-05T16:35:53.476Z,12.00
2023-04-05T16:38:22.721Z,11.90
2023-04-05T16:40:52.537Z,11.18
2023-04-05T16:43:21.968Z,10.40
2023-04-05T16:45:52.847Z,8.82
2023-04-05T16:48:22.793Z,11.07
2023-04-05T16:50:52.292Z,14.98
2023-04-05T16:53:21.376Z,11.80
2023-04-05T16:55:50.997Z,10.93
2023-04-05T16:58:20.296Z,13.50
2023-04-05T17:00:51.358Z,11.77
2023-04-05T17:03:22.901Z,11.10
2023-04-05T17:05:52.601Z,11.98
2023-04-05T17:08:22.191Z,11.50
2023-04-05T17:10:52.262Z,10.07
2023-04-05T17:13:22.088Z,11.32
2023-04-05T17:15:52.474Z,12.43
2023-04-05T17:18:23.091Z,13.68
2023-04-05T17:20:52.424Z,11.65
2023-04-05T17:23:21.731Z,11.45
2023-04-05T17:25:51.363Z,14.73
2023-04-05T17:28:28.790Z,15.95
2023-04-05T17:30:58.931Z,13.23
2023-04-05T17:33:30.225Z,12.65
2023-04-05T17:36:04.769Z,13.05
2023-04-05T17:38:35.192Z,13.27
2023-04-05T17:41:04.403Z,12.05
2023-04-05T17:43:35.029Z,12.02
2023-04-05T17:46:10.796Z,12.40
2023-04-05T17:48:41.627Z,13.13
2023-04-05T17:51:42.742Z,13.75
2023-04-05T17:54:44.546Z,12.70
2023-04-05T17:57:15.706Z,14.40
2023-04-05T17:59:45.940Z,12.82
2023-04-05T18:02:20.956Z,15.05
2023-04-05T18:04:51.362Z,13.00
2023-04-05T18:07:20.741Z,12.25
2023-04-05T18:09:50.346Z,13.77
2023-04-05T18:12:19.754Z,16.75
2023-04-05T18:14:49.275Z,13.57
2023-04-05T18:17:20.279Z,14.85
2023-04-05T18:19:51.094Z,13.80
2023-04-05T18:22:20.541Z,17.30
2023-04-05T18:24:50.058Z,13.25
2023-04-05T18:27:19.121Z,14.65
2023-04-05T18:29:49.166Z,15.32
2023-04-05T18:32:20.378Z,19.95
2023-04-05T18:34:51.863Z,16.67
2023-04-05T18:37:21.438Z,18.15
2023-04-05T18:39:50.628Z,17.80
2023-04-05T18:42:20.717Z,13.80
2023-04-05T18:44:53.614Z,21.88
2023-04-05T18:47:24.348Z,18.17
2023-04-05T18:49:55.821Z,15.73
2023-04-05T18:52:27.442Z,15.10
2023-04-05T18:54:58.756Z,11.95
2023-04-05T18:57:28.079Z,20.23
2023-04-05T19:00:00.939Z,16.90
2023-04-05T19:02:31.537Z,19.88
2023-04-05T19:05:02.500Z,20.00
2023-04-05T19:07:32.081Z,19.33
2023-04-05T19:10:02.582Z,17.92
2023-04-05T19:12:45.075Z,14.43
2023-04-05T19:15:14.668Z,18.77
2023-04-05T19:17:44.747Z,24.88
2023-04-05T19:20:15.903Z,24.70
2023-04-05T19:22:46.314Z,15.57
2023-04-05T19:25:15.532Z,19.10
2023-04-05T19:27:47.248Z,17.90
2023-04-05T19:30:20.073Z,24.67
2023-04-05T19:32:49.984Z,18.60
2023-04-05T19:35:21.787Z,19.73
2023-04-05T19:37:51.637Z,18.90
2023-04-05T19:40:23.759Z,18.75
2023-04-05T19:42:52.799Z,19.38
2023-04-05T19:45:33.313Z,19.77
2023-04-05T19:48:07.307Z,20.27
2023-04-05T19:50:48.236Z,18.98
2023-04-05T19:53:51.190Z,15.43
2023-04-05T19:56:22.894Z,20.70
2023-04-05T19:58:57.787Z,20.63
2023-04-05T20:01:35.791Z,17.92
2023-04-05T20:04:33.212Z,19.02
2023-04-05T20:07:04.661Z,17.85
2023-04-05T20:09:34.908Z,20.90
2023-04-05T20:12:05.853Z,16.45
2023-04-05T20:14:42.602Z,16.02
2023-04-05T20:17:13.560Z,17.63
2023-04-05T20:20:00.609Z,14.52
2023-04-05T20:22:33.804Z,21.05
2023-04-05T20:25:28.396Z,17.05
2023-04-05T20:27:57.955Z,18.13
2023-04-05T20:30:27.604Z,17.88
2023-04-05T20:32:57.731Z,20.88
2023-04-05T20:35:32.328Z,18.30
2023-04-05T20:38:02.862Z,22.75
2023-04-05T20:40:31.921Z,19.83
2023-04-05T20:43:01.246Z,18.13
2023-04-05T20:45:30.689Z,15.88
2023-04-05T20:48:01.167Z,19.75
2023-04-05T20:50:30.940Z,26.85
2023-04-05T20:53:06.317Z,18.58
2023-04-05T20:55:35.814Z,16.38
2023-04-05T20:58:05.218Z,16.77
2023-04-05T21:00:41.494Z,20.40
2023-04-05T21:03:13.666Z,16.55
2023-04-05T21:05:42.765Z,13.90
2023-04-05T21:08:13.640Z,20.65
2023-04-05T21:10:42.807Z,21.75
2023-04-05T21:13:12.910Z,15.13
2023-04-05T21:15:42.489Z,17.33
2023-04-05T21:18:11.758Z,20.10
2023-04-05T21:20:41.374Z,18.73
2023-04-05T21:23:12.303Z,13.95
2023-04-05T21:25:42.004Z,18.25
2023-04-05T21:28:11.397Z,20.45
2023-04-05T21:30:40.705Z,19.70
2023-04-05T21:33:10.086Z,20.23
2023-04-05T21:35:39.366Z,21.77
2023-04-05T21:38:08.753Z,18.02
2023-04-05T21:40:39.795Z,22.00
2023-04-05T21:43:08.895Z,19.60
2023-04-05T21:45:38.249Z,21.08
2023-04-05T21:48:07.914Z,20.92
2023-04-05T21:50:37.475Z,16.90
2023-04-05T21:53:07.470Z,17.70
2023-04-05T21:55:38.140Z,18.75
2023-04-05T21:58:07.820Z,17.83
2023-04-05T22:00:37.896Z,15.05
2023-04-05T22:03:07.136Z,16.52
2023-04-05T22:05:41.197Z,16.75
2023-04-05T22:08:11.440Z,19.90
2023-04-05T22:10:43.894Z,16.88
2023-04-05T22:13:13.123Z,18.98
2023-04-05T22:15:44.205Z,15.52
2023-04-05T22:18:13.956Z,17.30
2023-04-05T22:20:43.534Z,17.63
2023-04-05T22:23:12.494Z,13.23
2023-04-05T22:25:42.950Z,14.45
2023-04-05T22:28:11.945Z,15.10
2023-04-05T22:30:44.320Z,16.38
2023-04-05T22:33:14.145Z,18.52
2023-04-05T22:35:43.851Z,16.70
2023-04-05T22:38:13.300Z,14.55
2023-04-05T22:40:45.424Z,16.33
2023-04-05T22:43:14.605Z,14.85
2023-04-05T22:45:43.805Z,16.10
2023-04-05T22:48:13.050Z,15.98
2023-04-05T22:50:42.408Z,16.30
2023-04-05T22:53:15.763Z,16.67
2023-04-05T22:55:48.974Z,14.95
2023-04-05T22:58:19.723Z,13.55
2023-04-05T23:00:49.168Z,13.32
2023-04-05T23:03:18.338Z,13.00
2023-04-05T23:05:48.550Z,13.20
2023-04-05T23:08:17.818Z,12.50
2023-04-05T23:10:48.938Z,13.98
2023-04-05T23:13:18.131Z,13.52
2023-04-05T23:15:49.955Z,13.30
2023-04-05T23:18:22.765Z,12.30
2023-04-05T23:20:52.398Z,11.02
2023-04-05T23:23:25.098Z,10.88
2023-04-05T23:25:55.499Z,16.98
2023-04-05T23:28:24.514Z,14.13
2023-04-05T23:30:53.663Z,15.90
2023-04-05T23:33:23.009Z,13.27
2023-04-05T23:35:52.160Z,13.48
2023-04-05T23:38:21.445Z,10.13
2023-04-05T23:40:50.943Z,13.35
2023-04-05T23:43:23.938Z,11.02
2023-04-05T23:45:53.164Z,18.30
2023-04-05T23:48:22.515Z,10.73
2023-04-05T23:50:51.627Z,14.05
2023-04-05T23:53:21.060Z,12.30
2023-04-05T23:55:53.318Z,9.80
2023-04-05T23:58:24.213Z,14.07
